createdAt,value
2019-05-16T00:02:01.228Z,10.63
2019-05-16T00:04:31.334Z,11.13
2019-05-16T00:07:01.347Z,10.40
2019-05-16T00:09:31.233Z,11.23
2019-05-16T00:12:01.327Z,10.70
2019-05-16T00:14:30.965Z,11.10
2019-05-16T00:17:00.881Z,10.87
2019-05-16T00:19:30.709Z,11.97
2019-05-16T00:22:00.535Z,13.33
2019-05-16T00:24:30.502Z,14.23
2019-05-16T00:27:00.362Z,14.23
2019-05-16T00:29:30.282Z,15.63
2019-05-16T00:32:00.259Z,15.27
2019-05-16T00:34:30.171Z,14.47
2019-05-16T00:37:00.018Z,14.97
2019-05-16T00:39:29.979Z,15.33
2019-05-16T00:41:59.836Z,15.20
2019-05-16T00:44:29.767Z,16.07
2019-05-16T00:46:59.627Z,16.13
2019-05-16T00:49:29.514Z,16.83
2019-05-16T00:51:59.392Z,15.60
2019-05-16T00:54:29.247Z,16.73
2019-05-16T00:57:00.736Z,16.97
2019-05-16T00:59:30.752Z,17.33
2019-05-16T01:02:00.422Z,16.80
2019-05-16T01:04:30.230Z,19.77
2019-05-16T01:07:01.831Z,19.10
2019-05-16T01:09:31.800Z,17.70
2019-05-16T01:12:01.514Z,16.13
2019-05-16T01:14:31.389Z,17.60
2019-05-16T01:17:01.153Z,17.60
2019-05-16T01:19:31.089Z,17.23
2019-05-16T01:22:01.153Z,18.33
2019-05-16T01:24:31.022Z,17.80
2019-05-16T01:27:00.941Z,17.30
2019-05-16T01:29:30.891Z,17.77
2019-05-16T01:32:00.826Z,17.10
2019-05-16T01:34:30.694Z,17.20
2019-05-16T01:37:00.495Z,17.13
2019-05-16T01:39:30.475Z,18.23
2019-05-16T01:42:00.339Z,18.73
2019-05-16T01:44:30.351Z,17.83
2019-05-16T01:47:00.312Z,19.83
2019-05-16T01:49:30.068Z,19.17
2019-05-16T01:51:59.891Z,18.83
2019-05-16T01:54:29.747Z,18.10
2019-05-16T01:56:59.589Z,18.97
2019-05-16T01:59:29.343Z,17.17
2019-05-16T02:02:00.913Z,19.03
2019-05-16T02:04:30.901Z,18.53
2019-05-16T02:07:00.642Z,17.73
2019-05-16T02:09:30.594Z,18.00
2019-05-16T02:12:00.940Z,17.53
2019-05-16T02:14:30.868Z,19.97
2019-05-16T02:17:00.769Z,19.93
2019-05-16T02:19:30.414Z,18.67
2019-05-16T02:22:00.170Z,19.63
2019-05-16T02:24:31.836Z,19.37
2019-05-16T02:27:03.262Z,19.23
2019-05-16T02:29:34.842Z,18.03
2019-05-16T02:32:06.238Z,18.03
2019-05-16T02:34:36.187Z,18.00
2019-05-16T02:37:20.180Z,17.10
2019-05-16T02:39:40.756Z,17.07
2019-05-16T02:42:12.158Z,17.13
2019-05-16T02:44:44.200Z,17.23
2019-05-16T02:47:15.616Z,16.03
2019-05-16T02:49:45.482Z,15.73
2019-05-16T02:52:15.397Z,15.07
2019-05-16T02:54:46.973Z,13.90
2019-05-16T02:57:20.963Z,13.20
2019-05-16T02:59:50.946Z,12.13
2019-05-16T03:02:41.914Z,14.00
2019-05-16T03:05:12.792Z,14.03
2019-05-16T03:07:47.299Z,12.97
2019-05-16T03:10:16.674Z,14.07
2019-05-16T03:12:51.220Z,13.27
2019-05-16T03:15:21.720Z,15.00
2019-05-16T03:17:58.755Z,14.13
2019-05-16T03:20:31.344Z,13.67
2019-05-16T03:23:02.337Z,13.30
2019-05-16T03:25:34.104Z,13.93
2019-05-16T03:28:03.825Z,13.90
2019-05-16T03:30:35.522Z,14.23
2019-05-16T03:33:05.923Z,13.87
2019-05-16T03:35:35.934Z,14.57
2019-05-16T03:38:06.244Z,14.87
2019-05-16T03:40:41.236Z,15.13
2019-05-16T03:43:11.510Z,15.97
2019-05-16T03:45:41.950Z,15.77
2019-05-16T03:48:12.239Z,16.70
2019-05-16T03:50:42.295Z,16.90
2019-05-16T03:53:12.143Z,17.13
2019-05-16T03:55:41.980Z,16.03
2019-05-16T03:58:11.956Z,17.83
2019-05-16T04:00:55.374Z,16.83
2019-05-16T04:03:28.473Z,17.40
2019-05-16T04:05:57.134Z,16.13
2019-05-16T04:08:26.916Z,16.37
2019-05-16T04:10:56.677Z,15.90
2019-05-16T04:13:26.383Z,15.43
2019-05-16T04:15:56.368Z,15.90
2019-05-16T04:18:26.212Z,16.93
2019-05-16T04:20:56.130Z,15.77
2019-05-16T04:23:26.094Z,16.80
2019-05-16T04:25:55.848Z,17.77
2019-05-16T04:28:25.617Z,17.03
2019-05-16T04:30:55.372Z,18.23
2019-05-16T04:33:25.625Z,16.53
2019-05-16T04:35:55.596Z,13.03
2019-05-16T04:38:40.782Z,15.80
2019-05-16T04:40:56.893Z,11.40
2019-05-16T04:43:26.843Z,9.90
2019-05-16T04:45:56.723Z,8.63
2019-05-16T04:48:26.949Z,7.33
2019-05-16T04:50:56.812Z,9.70
2019-05-16T04:53:26.689Z,10.47
2019-05-16T04:55:56.598Z,8.40
2019-05-16T04:58:26.593Z,8.37
2019-05-16T05:00:56.370Z,11.03
2019-05-16T05:03:26.164Z,11.90
2019-05-16T05:05:55.954Z,8.97
2019-05-16T05:08:25.903Z,7.47
2019-05-16T05:10:55.736Z,6.63
2019-05-16T05:13:26.854Z,7.83
2019-05-16T05:15:56.672Z,8.80
2019-05-16T05:18:26.412Z,7.43
2019-05-16T05:20:57.433Z,8.17
2019-05-16T05:23:29.931Z,8.87
2019-05-16T05:26:00.263Z,7.13
2019-05-16T05:28:30.297Z,7.17
2019-05-16T05:31:00.160Z,7.83
2019-05-16T05:33:30.538Z,6.80
2019-05-16T05:36:01.747Z,7.53
2019-05-16T05:38:31.663Z,8.27
2019-05-16T05:41:01.376Z,10.03
2019-05-16T05:43:31.221Z,8.07
2019-05-16T05:46:01.103Z,8.67
2019-05-16T05:48:31.223Z,8.13
2019-05-16T05:51:01.078Z,10.67
2019-05-16T05:53:30.949Z,7.97
2019-05-16T05:56:02.205Z,8.30
2019-05-16T05:58:33.371Z,5.50
2019-05-16T06:01:03.163Z,5.63
2019-05-16T06:03:33.333Z,3.83
2019-05-16T06:06:03.202Z,4.27
2019-05-16T06:08:33.056Z,3.87
2019-05-16T06:11:03.035Z,4.17
2019-05-16T06:13:32.844Z,3.07
2019-05-16T06:16:03.013Z,2.53
2019-05-16T06:18:33.087Z,2.90
2019-05-16T06:21:03.107Z,3.57
2019-05-16T06:23:32.977Z,3.27
2019-05-16T06:26:02.975Z,3.37
2019-05-16T06:28:32.909Z,4.07
2019-05-16T06:31:02.808Z,3.57
2019-05-16T06:33:32.686Z,2.93
2019-05-16T06:36:02.658Z,4.07
2019-05-16T06:38:32.521Z,3.60
2019-05-16T06:41:02.317Z,3.73
2019-05-16T06:43:33.520Z,4.67
2019-05-16T06:46:03.289Z,5.83
2019-05-16T06:48:33.126Z,4.83
2019-05-16T06:51:03.314Z,6.13
2019-05-16T06:53:33.239Z,6.23
2019-05-16T06:56:03.290Z,7.93
2019-05-16T06:58:44.811Z,7.40
2019-05-16T07:01:04.860Z,6.93
2019-05-16T07:03:34.824Z,7.80
2019-05-16T07:06:04.675Z,6.97
2019-05-16T07:08:36.912Z,7.30
2019-05-16T07:11:06.813Z,7.17
2019-05-16T07:13:36.686Z,6.93
2019-05-16T07:16:06.920Z,6.33
2019-05-16T07:18:40.254Z,7.53
2019-05-16T07:21:10.839Z,6.70
2019-05-16T07:23:41.003Z,7.83
2019-05-16T07:26:10.909Z,9.50
2019-05-16T07:28:40.827Z,6.40
2019-05-16T07:31:18.454Z,7.53
2019-05-16T07:33:43.916Z,9.13
2019-05-16T07:36:15.927Z,9.47
2019-05-16T07:38:45.416Z,8.97
2019-05-16T07:41:15.083Z,10.07
2019-05-16T07:43:44.841Z,9.77
2019-05-16T07:46:14.631Z,8.87
2019-05-16T07:48:44.537Z,8.57
2019-05-16T07:51:15.581Z,8.10
2019-05-16T07:53:45.492Z,9.37
2019-05-16T07:56:15.435Z,8.63
2019-05-16T07:58:45.339Z,8.67
2019-05-16T08:01:16.393Z,9.23
2019-05-16T08:03:46.167Z,9.63
2019-05-16T08:06:15.880Z,9.60
2019-05-16T08:08:47.121Z,10.60
2019-05-16T08:11:16.884Z,10.27
2019-05-16T08:13:46.759Z,9.97
2019-05-16T08:16:16.607Z,10.53
2019-05-16T08:18:46.537Z,10.67
2019-05-16T08:21:16.981Z,10.30
2019-05-16T08:23:50.071Z,10.37
2019-05-16T08:26:21.914Z,11.13
2019-05-16T08:28:50.687Z,11.30
2019-05-16T08:31:21.508Z,10.63
2019-05-16T08:33:54.889Z,10.73
2019-05-16T08:36:24.028Z,9.50
2019-05-16T08:38:54.051Z,10.43
2019-05-16T08:41:25.290Z,11.40
2019-05-16T08:43:55.120Z,13.00
2019-05-16T08:46:24.917Z,12.83
2019-05-16T08:49:00.841Z,12.53
2019-05-16T08:51:33.402Z,13.87
2019-05-16T08:56:32.540Z,10.63
2019-05-16T08:59:04.151Z,11.23
2019-05-16T09:01:35.230Z,10.03
2019-05-16T09:04:05.312Z,11.03
2019-05-16T09:06:35.021Z,10.50
2019-05-16T09:09:22.267Z,13.23
2019-05-16T09:10:31.818Z,11.43
2019-05-16T09:11:44.649Z,11.53
2019-05-16T09:14:09.203Z,11.70
2019-05-16T09:16:38.723Z,12.47
2019-05-16T09:19:08.320Z,13.03
2019-05-16T09:21:38.444Z,10.80
2019-05-16T09:24:08.327Z,9.30
2019-05-16T09:26:38.474Z,10.00
2019-05-16T09:29:08.869Z,9.20
2019-05-16T09:31:38.992Z,7.63
2019-05-16T09:34:08.926Z,8.80
2019-05-16T09:36:38.891Z,8.83
2019-05-16T09:39:09.574Z,9.37
2019-05-16T09:41:54.301Z,10.63
2019-05-16T09:44:12.366Z,10.57
2019-05-16T09:46:42.199Z,10.00
2019-05-16T09:49:19.178Z,10.90
2019-05-16T09:51:43.640Z,11.50
2019-05-16T09:54:13.576Z,11.63
2019-05-16T09:56:43.198Z,11.30
2019-05-16T09:59:13.032Z,10.73
2019-05-16T10:01:42.943Z,11.97
2019-05-16T10:04:12.890Z,11.13
2019-05-16T10:06:42.580Z,10.67
2019-05-16T10:09:12.375Z,11.20
2019-05-16T10:11:42.838Z,11.47
2019-05-16T10:14:12.948Z,11.50
2019-05-16T10:16:42.835Z,10.93
2019-05-16T10:19:12.808Z,10.77
2019-05-16T10:21:42.662Z,9.57
2019-05-16T10:24:12.577Z,10.33
2019-05-16T10:26:42.509Z,9.97
2019-05-16T10:29:12.371Z,9.23
2019-05-16T10:31:49.342Z,9.10
2019-05-16T10:34:17.234Z,8.40
2019-05-16T10:36:47.190Z,8.33
2019-05-16T10:39:17.082Z,8.00
2019-05-16T10:41:48.169Z,7.97
2019-05-16T10:44:20.105Z,7.57
2019-05-16T10:46:51.196Z,7.07
2019-05-16T10:49:33.162Z,7.10
2019-05-16T10:51:52.445Z,7.60
2019-05-16T10:54:22.366Z,7.43
2019-05-16T10:56:52.549Z,8.10
2019-05-16T10:59:54.547Z,6.90
2019-05-16T11:01:56.401Z,7.10
2019-05-16T11:04:37.616Z,7.33
2019-05-16T11:06:59.126Z,6.67
2019-05-16T11:09:29.012Z,6.80
2019-05-16T11:11:58.946Z,7.23
2019-05-16T11:14:28.811Z,6.60
2019-05-16T11:16:58.455Z,5.60
2019-05-16T11:19:28.541Z,6.17
2019-05-16T11:21:58.380Z,6.07
2019-05-16T11:24:29.347Z,6.27
2019-05-16T11:26:59.557Z,6.43
2019-05-16T11:29:29.323Z,5.57
2019-05-16T11:31:59.126Z,5.47
2019-05-16T11:34:29.016Z,5.50
2019-05-16T11:36:58.769Z,5.80
2019-05-16T11:39:28.603Z,5.23
2019-05-16T11:41:58.486Z,5.23
2019-05-16T11:44:29.087Z,4.90
2019-05-16T11:46:58.901Z,5.53
2019-05-16T11:49:29.977Z,5.33
2019-05-16T11:51:59.774Z,5.70
2019-05-16T11:54:29.576Z,5.13
2019-05-16T11:57:00.766Z,4.60
2019-05-16T11:59:30.407Z,5.53
2019-05-16T12:02:00.239Z,5.10
2019-05-16T12:04:30.210Z,5.20
2019-05-16T12:07:00.004Z,4.27
2019-05-16T12:09:33.816Z,4.30
2019-05-16T12:12:04.036Z,4.13
2019-05-16T12:14:36.607Z,4.73
2019-05-16T12:17:07.415Z,3.90
2019-05-16T12:19:43.522Z,4.23
2019-05-16T12:22:08.993Z,4.27
2019-05-16T12:24:41.485Z,4.30
2019-05-16T12:27:11.697Z,4.53
2019-05-16T12:29:41.517Z,4.40
2019-05-16T12:32:12.777Z,4.20
2019-05-16T12:34:42.557Z,4.30
2019-05-16T12:37:12.495Z,4.20
2019-05-16T12:39:43.448Z,3.87
2019-05-16T12:42:13.332Z,4.23
2019-05-16T12:44:43.181Z,4.40
2019-05-16T12:47:13.136Z,4.30
2019-05-16T12:49:42.877Z,4.87
2019-05-16T12:52:12.805Z,4.77
2019-05-16T12:54:42.662Z,4.10
2019-05-16T12:57:12.788Z,5.13
2019-05-16T12:59:50.130Z,4.37
2019-05-16T13:02:14.077Z,4.73
2019-05-16T13:04:43.825Z,4.10
2019-05-16T13:07:13.916Z,4.47
2019-05-16T13:09:43.550Z,4.13
2019-05-16T13:12:13.421Z,3.83
2019-05-16T13:14:43.337Z,3.90
2019-05-16T13:17:13.246Z,4.13
2019-05-16T13:19:44.419Z,4.73
2019-05-16T13:22:16.653Z,4.40
2019-05-16T13:24:47.915Z,4.67
2019-05-16T13:27:22.834Z,4.50
2019-05-16T13:29:49.453Z,4.50
2019-05-16T13:32:19.366Z,4.33
2019-05-16T13:34:49.336Z,4.17
2019-05-16T13:37:19.106Z,5.10
2019-05-16T13:39:48.909Z,4.33
2019-05-16T13:42:18.610Z,4.80
2019-05-16T13:44:48.488Z,4.70
2019-05-16T13:47:18.332Z,4.43
2019-05-16T13:49:48.017Z,4.97
2019-05-16T13:52:17.839Z,4.33
2019-05-16T13:54:47.794Z,5.10
2019-05-16T13:57:17.722Z,5.90
2019-05-16T13:59:47.574Z,4.63
2019-05-16T14:02:18.778Z,5.07
2019-05-16T14:04:48.503Z,4.97
2019-05-16T14:07:18.341Z,4.70
2019-05-16T14:09:49.472Z,5.07
2019-05-16T14:12:19.310Z,5.83
2019-05-16T14:14:49.083Z,5.80
2019-05-16T14:17:19.054Z,5.13
2019-05-16T14:19:48.827Z,4.63
2019-05-16T14:22:18.604Z,5.17
2019-05-16T14:24:48.537Z,4.60
2019-05-16T14:27:18.294Z,4.33
2019-05-16T14:29:48.052Z,5.13
2019-05-16T14:32:19.656Z,4.80
2019-05-16T14:34:51.768Z,4.30
2019-05-16T14:37:21.786Z,5.07
2019-05-16T14:39:51.713Z,4.40
2019-05-16T14:42:21.649Z,4.70
2019-05-16T14:45:09.217Z,5.00
2019-05-16T14:47:22.936Z,4.70
2019-05-16T14:49:52.720Z,4.70
2019-05-16T14:52:22.544Z,4.97
2019-05-16T14:54:53.502Z,5.43
2019-05-16T14:57:23.267Z,5.90
2019-05-16T14:59:53.004Z,5.83
2019-05-16T15:02:22.873Z,5.40
2019-05-16T15:04:52.728Z,5.20
2019-05-16T15:07:22.541Z,5.47
2019-05-16T15:09:53.523Z,5.10
2019-05-16T15:12:27.714Z,4.80
2019-05-16T15:15:15.443Z,5.37
2019-05-16T15:17:30.299Z,4.50
2019-05-16T15:20:00.214Z,5.77
2019-05-16T15:22:30.076Z,5.53
2019-05-16T15:24:59.840Z,6.40
2019-05-16T15:27:29.453Z,6.93
2019-05-16T15:29:59.326Z,6.23
2019-05-16T15:32:31.898Z,6.97
2019-05-16T15:35:00.642Z,6.10
2019-05-16T15:37:30.534Z,5.80
2019-05-16T15:40:01.746Z,4.90
2019-05-16T15:42:31.527Z,5.90
2019-05-16T15:45:01.340Z,5.50
2019-05-16T15:47:31.462Z,4.73
2019-05-16T15:50:01.153Z,5.70
2019-05-16T15:52:32.999Z,5.67
2019-05-16T15:55:09.594Z,5.83
2019-05-16T15:57:37.702Z,8.80
2019-05-16T16:00:10.766Z,6.87
2019-05-16T16:02:39.805Z,7.23
2019-05-16T16:05:10.429Z,6.60
2019-05-16T16:07:40.169Z,7.03
2019-05-16T16:10:11.359Z,6.60
2019-05-16T16:12:41.218Z,9.50
2019-05-16T16:15:11.434Z,9.73
2019-05-16T16:17:41.241Z,12.77
2019-05-16T16:20:10.949Z,13.07
2019-05-16T16:22:40.910Z,8.10
2019-05-16T16:25:10.891Z,8.03
2019-05-16T16:27:40.808Z,7.53
2019-05-16T16:30:11.468Z,8.87
2019-05-16T16:32:41.283Z,8.33
2019-05-16T16:35:14.096Z,8.27
2019-05-16T16:37:46.944Z,8.37
2019-05-16T16:40:17.756Z,8.17
2019-05-16T16:42:47.619Z,9.30
2019-05-16T16:45:20.040Z,8.50
2019-05-16T16:47:49.970Z,8.07
2019-05-16T16:50:19.968Z,8.30
2019-05-16T16:52:50.069Z,8.57
2019-05-16T16:55:20.145Z,8.80
2019-05-16T16:57:50.157Z,9.10
2019-05-16T17:00:20.505Z,7.83
2019-05-16T17:03:02.233Z,7.90
2019-05-16T17:05:22.124Z,9.00
2019-05-16T17:07:51.965Z,8.23
2019-05-16T17:10:21.907Z,8.13
2019-05-16T17:12:51.739Z,9.00
2019-05-16T17:15:21.835Z,9.13
2019-05-16T17:17:51.624Z,8.93
2019-05-16T17:20:22.063Z,8.37
2019-05-16T17:22:51.861Z,8.67
2019-05-16T17:25:21.860Z,9.13
2019-05-16T17:27:51.620Z,9.30
2019-05-16T17:30:22.262Z,11.33
2019-05-16T17:32:52.196Z,9.63
2019-05-16T17:35:22.284Z,9.00
2019-05-16T17:37:53.059Z,9.67
2019-05-16T17:40:23.140Z,8.57
2019-05-16T17:42:53.087Z,9.40
2019-05-16T17:45:23.410Z,11.23
2019-05-16T17:47:53.190Z,9.63
2019-05-16T17:50:23.117Z,9.83
2019-05-16T17:52:53.002Z,9.70
2019-05-16T17:55:23.275Z,10.33
2019-05-16T17:57:53.099Z,10.03
2019-05-16T18:00:28.083Z,11.57
2019-05-16T18:02:56.911Z,11.53
2019-05-16T18:05:26.552Z,11.60
2019-05-16T18:07:56.474Z,11.30
2019-05-16T18:10:27.046Z,11.77
2019-05-16T18:12:57.019Z,11.67
2019-05-16T18:15:27.212Z,12.03
2019-05-16T18:17:57.010Z,11.50
2019-05-16T18:20:26.971Z,12.13
2019-05-16T18:22:56.995Z,12.37
2019-05-16T18:25:27.123Z,12.20
2019-05-16T18:27:56.910Z,11.80
2019-05-16T18:30:27.181Z,12.90
2019-05-16T18:32:57.770Z,14.70
2019-05-16T18:35:27.654Z,13.43
2019-05-16T18:37:57.575Z,12.17
2019-05-16T18:40:28.638Z,12.37
2019-05-16T18:42:58.348Z,13.40
2019-05-16T18:45:28.474Z,13.47
2019-05-16T18:47:59.551Z,12.37
2019-05-16T18:50:29.464Z,12.47
2019-05-16T18:52:59.325Z,13.03
2019-05-16T18:55:30.579Z,11.53
2019-05-16T18:58:00.313Z,13.93
2019-05-16T19:00:30.258Z,12.63
2019-05-16T19:03:00.021Z,12.57
2019-05-16T19:05:30.160Z,12.33
2019-05-16T19:08:00.231Z,12.60
2019-05-16T19:10:29.978Z,12.87
2019-05-16T19:12:59.967Z,12.27
2019-05-16T19:15:29.858Z,13.00
2019-05-16T19:17:59.733Z,12.50
2019-05-16T19:20:29.677Z,13.10
2019-05-16T19:23:00.766Z,13.97
2019-05-16T19:25:30.712Z,12.90
2019-05-16T19:28:00.635Z,14.57
2019-05-16T19:30:30.919Z,18.03
2019-05-16T19:33:00.672Z,27.53
2019-05-16T19:35:30.594Z,14.93
2019-05-16T19:38:01.753Z,11.77
2019-05-16T19:40:31.641Z,13.47
2019-05-16T19:43:01.549Z,12.73
2019-05-16T19:45:31.523Z,11.03
2019-05-16T19:48:01.503Z,12.33
2019-05-16T19:50:31.305Z,12.87
2019-05-16T19:53:02.387Z,14.07
2019-05-16T19:55:32.180Z,13.47
2019-05-16T19:58:02.209Z,15.60
2019-05-16T20:00:33.350Z,14.10
2019-05-16T20:03:03.164Z,13.70
2019-05-16T20:05:33.108Z,13.07
2019-05-16T20:08:02.983Z,11.60
2019-05-16T20:10:32.897Z,11.63
2019-05-16T20:13:02.848Z,12.03
2019-05-16T20:15:33.257Z,11.80
2019-05-16T20:18:04.494Z,10.80
2019-05-16T20:20:37.172Z,11.13
2019-05-16T20:23:07.297Z,10.20
2019-05-16T20:25:37.107Z,9.80
2019-05-16T20:28:09.071Z,9.93
2019-05-16T20:30:38.893Z,9.47
2019-05-16T20:33:09.514Z,10.70
2019-05-16T20:35:40.714Z,9.67
2019-05-16T20:38:10.596Z,10.37
2019-05-16T20:40:41.743Z,9.00
2019-05-16T20:43:11.538Z,9.43
2019-05-16T20:45:41.413Z,10.13
2019-05-16T20:48:15.108Z,9.93
2019-05-16T20:50:42.935Z,11.03
2019-05-16T20:53:13.897Z,10.60
2019-05-16T20:55:43.915Z,10.73
2019-05-16T20:58:13.805Z,10.73
2019-05-16T21:00:49.403Z,10.57
2019-05-16T21:03:16.375Z,8.97
2019-05-16T21:05:47.992Z,8.60
2019-05-16T21:08:17.718Z,9.47
2019-05-16T21:10:47.949Z,8.70
2019-05-16T21:13:17.889Z,10.53
2019-05-16T21:15:48.003Z,8.90
2019-05-16T21:18:18.461Z,8.73
2019-05-16T21:20:48.481Z,8.93
2019-05-16T21:23:19.516Z,8.10
2019-05-16T21:25:49.440Z,8.57
2019-05-16T21:28:19.814Z,8.60
2019-05-16T21:30:51.165Z,8.47
2019-05-16T21:33:20.993Z,7.70
2019-05-16T21:35:50.916Z,8.03
2019-05-16T21:38:20.995Z,8.43
2019-05-16T21:40:51.941Z,8.80
2019-05-16T21:43:23.072Z,9.27
2019-05-16T21:45:52.964Z,9.30
2019-05-16T21:48:22.884Z,9.03
2019-05-16T21:50:52.958Z,11.80
2019-05-16T21:53:22.857Z,10.03
2019-05-16T21:55:52.668Z,9.00
2019-05-16T21:58:22.622Z,11.73
2019-05-16T22:00:56.713Z,9.77
2019-05-16T22:03:27.045Z,12.23
2019-05-16T22:05:57.770Z,11.50
2019-05-16T22:08:27.916Z,37.40
2019-05-16T22:10:57.760Z,41.33
2019-05-16T22:13:27.656Z,24.73
2019-05-16T22:15:57.650Z,26.30
2019-05-16T22:18:27.487Z,29.10
2019-05-16T22:20:57.400Z,36.70
2019-05-16T22:23:27.366Z,30.67
2019-05-16T22:25:57.332Z,30.43
2019-05-16T22:28:30.083Z,23.90
2019-05-16T22:30:59.907Z,49.27
2019-05-16T22:33:29.939Z,32.87
2019-05-16T22:35:59.912Z,36.07
2019-05-16T22:38:29.935Z,29.20
2019-05-16T22:41:00.017Z,25.97
2019-05-16T22:43:29.992Z,36.00
2019-05-16T22:45:59.990Z,33.60
2019-05-16T22:48:29.885Z,34.33
2019-05-16T22:50:59.649Z,39.27
2019-05-16T22:53:29.563Z,34.43
2019-05-16T22:55:59.656Z,30.70
2019-05-16T22:58:29.506Z,30.57
2019-05-16T23:00:59.733Z,32.30
2019-05-16T23:03:29.550Z,29.67
2019-05-16T23:05:59.460Z,26.43
2019-05-16T23:08:29.269Z,21.80
2019-05-16T23:10:59.210Z,23.30
2019-05-16T23:13:29.098Z,23.53
2019-05-16T23:15:59.163Z,21.93
2019-05-16T23:18:28.815Z,22.20
2019-05-16T23:20:58.649Z,21.03
2019-05-16T23:23:28.582Z,18.43
2019-05-16T23:25:58.531Z,19.23
2019-05-16T23:28:28.283Z,18.20
2019-05-16T23:30:59.039Z,17.80
2019-05-16T23:33:29.006Z,18.93
2019-05-16T23:35:58.861Z,19.60
2019-05-16T23:38:28.654Z,18.77
2019-05-16T23:40:58.557Z,17.87
2019-05-16T23:43:28.409Z,19.00
2019-05-16T23:45:58.124Z,19.03
2019-05-16T23:48:28.133Z,24.40
2019-05-16T23:50:57.956Z,32.37
2019-05-16T23:53:27.771Z,34.20
2019-05-16T23:55:57.737Z,14.13
2019-05-16T23:58:27.611Z,14.27
